Etusivu
METAR-TAF:

METAR-TAF

Lentoasemat :

Pittsburgh International Airport

Pittsburgh, Pennsylvania, Yhdysvallat

Leveyspiiri: 40-30-14N, Pituuspiiri: 080-15-59W, korkeus merenpinnasta: 366 m

Tämänhetkinen sää

Tämä raportti tehtiin 54 minuuttia sitten, kello 07.51 UTC
tyyntä
Lämpötila -11°C
Kosteus 85%
Ilmanpaine 1030 hPa
Näkyvyys: 16.1 km
selkeää

METAR: KPIT 220751Z 00000KT 10SM CLR M11/M13 A3042 RMK AO2 SLP331 T11061128

Aika: 03:45 (08:45 UTC)

Sääennuste

Tämä raportti tehtiin 3 tuntia ja 25 minuuttia sitten, kello 05.20 UTC
Ennuste voimassa 22. päivästä klo 06 UTC - 23. päivään klo 12 UTC
Tuuli kn pohjoisesta
Näkyvyys: 10 km
selkeää
From 22. päivästä klo 1600 UTC
Tuuli 5 kn etelästä
Näkyvyys: 10 km
Hajanaisia pilviä 25000 ft:n korkeudessa

TAF: KPIT 220520Z 2206/2312 00000KT P6SM SKC FM221600 18005KT P6SM SCT250

Säähavainnot ja -ennusteet yli 4000 lentoasemalta (METAR- ja TAF-raportit).

Käytössä olevat sääasemat on merkitty karttaan keltaisilla ja punaisilla pisteillä.

Aseta hiiri pisteen päälle nähdäksesi sääaseman nimen.

Klikkaa sitten nähdäksesi säähavainnot ja -ennusteet.

Kartan vaihtaminen: klikkaa mustalla rastilla varustettuja vihreitä pisteitä, niin voit zoomata sisään; viivalla varustettua vihreää pistettä, niin voit zoomata ulos tai vihreitä nuolia, niin pääset viereisille kartoille.


METAR-TAF: